Time;durP1;ratioP1;P1;durP2;ratioP2;P2;SDS_P1;SDS_P2;PMS_P1;PMS_P2;Temp;Humidity;BMP_temperature;BMP_pressure;BME280_temperature;BME280_humidity;BME280_pressure;Samples;Min_cycle;Max_cycle;Signal;HPM_P1;HPM_P2
2023/06/26 00:01:32;;;;;;;;;;;;;;;;;;5043115;28;20011;-66
2023/06/26 00:03:58;;;;;;;;;;;;;;;;;;5031496;28;20362;-66
2023/06/26 00:06:25;;;;;;;;;;;;;;;;;;5032358;28;20000;-66
2023/06/26 00:08:52;;;;;;;;;;;;;;;;;;5031239;28;19925;-66
2023/06/26 00:11:19;;;;;;;;;;;;;;;;;;5032211;28;20023;-66
2023/06/26 00:13:48;;;;;;;;;;;;;;;;;;5031772;28;20016;-66
2023/06/26 00:16:15;;;;;;;;;;;;;;;;;;5031765;28;20375;-66
2023/06/26 00:18:42;;;;;;;;;;;;;;;;;;5030490;28;19932;-67
2023/06/26 00:21:09;;;;;;;;;;;;;;;;;;5031942;28;19975;-66
2023/06/26 00:23:37;;;;;;;;;;;;;;;;;;5029489;28;20031;-66
2023/06/26 00:26:04;;;;;;;;;;;;;;;;;;5033647;28;19933;-66
2023/06/26 00:28:31;;;;;;;;;;;;;;;;;;5031689;28;19999;-66
2023/06/26 00:30:58;;;;;;;;;;;;;;;;;;5031860;28;20020;-66
2023/06/26 00:33:25;;;;;;;;;;;;;;;;;;5031041;28;19925;-66
2023/06/26 00:35:52;;;;;;;;;;;;;;;;;;5031991;28;19925;-66
2023/06/26 00:38:19;;;;;;;;;;;;;;;;;;5032103;28;20201;-66
2023/06/26 00:40:46;;;;;;;;;;;;;;;;;;5032576;28;19967;-66
2023/06/26 00:43:13;;;;;;;;;;;;;;;;;;5042260;28;20012;-66
2023/06/26 00:45:40;;;;;;;;;;;;;;;;;;5031396;28;19972;-66
2023/06/26 00:48:06;;;;;;;;;;;;;;;;;;5028399;28;20020;-66
2023/06/26 00:50:33;;;;;;;;;;;;;;;;;;5031446;28;20037;-66
2023/06/26 00:53:01;;;;;;;;;;;;;;;;;;5032538;28;20031;-66
2023/06/26 00:55:28;;;;;;;;;;;;;;;;;;5030681;28;20011;-66
2023/06/26 00:57:55;;;;;;;;;;;;;;;;;;5025603;28;19928;-65
2023/06/26 01:00:22;;;;;;;;;;;;;;;;;;5029455;28;20008;-66
2023/06/26 01:02:49;;;;;;;;;;;;;;;;;;5030368;28;20012;-65
2023/06/26 01:05:20;;;;;;;;;;;;;;;;;;5031353;28;20028;-66
2023/06/26 01:07:47;;;;;;;;;;;;;;;;;;5030328;28;19956;-66
2023/06/26 01:10:14;;;;;;;;;;;;;;;;;;5030357;28;20027;-66
2023/06/26 01:12:41;;;;;;;;;;;;;;;;;;5029840;28;20395;-66
2023/06/26 01:15:08;;;;;;;;;;;;;;;;;;5029316;28;20443;-65
2023/06/26 01:17:35;;;;;;;;;;;;;;;;;;5037576;28;19971;-66
2023/06/26 01:20:02;;;;;;;;;;;;;;;;;;5034027;28;20000;-65
2023/06/26 01:22:29;;;;;;;;;;;;;;;;;;5035024;28;19926;-66
2023/06/26 01:24:57;;;;;;;;;;;;;;;;;;5034019;28;20015;-66
2023/06/26 01:27:24;;;;;;;;;;;;;;;;;;5033091;28;19925;-65
2023/06/26 01:29:51;;;;;;;;;;;;;;;;;;5034100;28;20008;-65
2023/06/26 01:32:18;;;;;;;;;;;;;;;;;;5032882;28;20017;-65
2023/06/26 01:34:45;;;;;;;;;;;;;;;;;;5035264;28;20027;-66
2023/06/26 01:37:12;;;;;;;;;;;;;;;;;;5032515;28;19928;-66
2023/06/26 01:39:39;;;;;;;;;;;;;;;;;;5036149;28;20007;-66
2023/06/26 01:42:06;;;;;;;;;;;;;;;;;;5035466;28;19979;-66
2023/06/26 01:44:34;;;;;;;;;;;;;;;;;;5032268;28;20380;-66
2023/06/26 01:47:02;;;;;;;;;;;;;;;;;;5043286;28;19928;-66
2023/06/26 01:49:29;;;;;;;;;;;;;;;;;;5035218;28;20368;-65
2023/06/26 01:51:56;;;;;;;;;;;;;;;;;;5035662;28;20350;-65
2023/06/26 01:54:23;;;;;;;;;;;;;;;;;;5033742;28;20041;-65
2023/06/26 01:56:50;;;;;;;;;;;;;;;;;;5034902;28;19929;-65
2023/06/26 01:59:17;;;;;;;;;;;;;;;;;;5034661;28;19925;-65
2023/06/26 02:01:43;;;;;;;;;;;;;;;;;;5042344;28;19968;-65
2023/06/26 02:04:10;;;;;;;;;;;;;;;;;;5032776;28;20360;-66
2023/06/26 02:06:37;;;;;;;;;;;;;;;;;;5034323;28;20291;-66
2023/06/26 02:09:04;;;;;;;;;;;;;;;;;;5042854;28;20307;-66
2023/06/26 02:11:31;;;;;;;;;;;;;;;;;;5034996;28;20343;-66
2023/06/26 02:13:58;;;;;;;;;;;;;;;;;;5034682;28;20035;-66
2023/06/26 02:16:25;;;;;;;;;;;;;;;;;;5034320;28;20016;-66
2023/06/26 02:18:52;;;;;;;;;;;;;;;;;;5031560;28;20012;-66
2023/06/26 02:21:19;;;;;;;;;;;;;;;;;;5031695;28;19925;-66
2023/06/26 02:23:46;;;;;;;;;;;;;;;;;;5033304;28;19925;-66
2023/06/26 02:26:13;;;;;;;;;;;;;;;;;;5034678;28;20035;-66
2023/06/26 02:28:40;;;;;;;;;;;;;;;;;;5034289;28;20020;-66
2023/06/26 02:31:07;;;;;;;;;;;;;;;;;;5031229;28;20371;-66
2023/06/26 02:33:34;;;;;;;;;;;;;;;;;;5027155;28;20003;-66
2023/06/26 02:36:01;;;;;;;;;;;;;;;;;;5034232;28;20024;-66
2023/06/26 02:38:28;;;;;;;;;;;;;;;;;;5031335;28;19925;-66
2023/06/26 02:40:55;;;;;;;;;;;;;;;;;;5033561;28;19972;-66
2023/06/26 02:43:22;;;;;;;;;;;;;;;;;;5032201;28;20490;-65
2023/06/26 02:45:49;;;;;;;;;;;;;;;;;;5034729;28;20015;-65
2023/06/26 02:48:16;;;;;;;;;;;;;;;;;;5033603;28;19932;-65
2023/06/26 02:50:45;;;;;;;;;;;;;;;;;;5033479;28;19925;-65
2023/06/26 02:53:12;;;;;;;;;;;;;;;;;;5033588;28;20103;-66
2023/06/26 02:55:39;;;;;;;;;;;;;;;;;;5031267;28;19932;-65
2023/06/26 02:58:06;;;;;;;;;;;;;;;;;;5032452;28;20007;-66
2023/06/26 03:00:33;;;;;;;;;;;;;;;;;;5035108;28;20335;-66
2023/06/26 03:03:00;;;;;;;;;;;;;;;;;;5035086;28;20013;-65
2023/06/26 03:05:27;;;;;;;;;;;;;;;;;;5032718;28;19925;-66
2023/06/26 03:07:54;;;;;;;;;;;;;;;;;;5032410;28;20340;-66
2023/06/26 03:10:21;;;;;;;;;;;;;;;;;;5030910;28;19979;-65
2023/06/26 03:12:48;;;;;;;;;;;;;;;;;;5031432;28;20015;-65
2023/06/26 03:15:15;;;;;;;;;;;;;;;;;;5035433;28;19931;-66
2023/06/26 03:17:42;;;;;;;;;;;;;;;;;;5051938;28;19932;-66
2023/06/26 03:20:09;;;;;;;;;;;;;;;;;;5033012;28;19960;-66
2023/06/26 03:22:36;;;;;;;;;;;;;;;;;;5031492;28;19929;-68
2023/06/26 03:25:04;;;;;;;;;;;;;;;;;;5032337;28;19933;-66
2023/06/26 03:27:31;;;;;;;;;;;;;;;;;;5027949;28;19970;-65
2023/06/26 03:29:58;;;;;;;;;;;;;;;;;;5038812;28;20445;-65
2023/06/26 03:32:25;;;;;;;;;;;;;;;;;;5037603;28;19987;-65
2023/06/26 03:34:53;;;;;;;;;;;;;;;;;;5027413;28;20019;-65
2023/06/26 03:37:20;;;;;;;;;;;;;;;;;;5029647;28;19996;-65
2023/06/26 03:39:47;;;;;;;;;;;;;;;;;;5030872;28;19948;-65
2023/06/26 03:42:14;;;;;;;;;;;;;;;;;;5030897;28;20343;-66
2023/06/26 03:44:41;;;;;;;;;;;;;;;;;;5032290;28;20353;-65
2023/06/26 03:47:08;;;;;;;;;;;;;;;;;;5029793;28;19969;-66
2023/06/26 03:49:35;;;;;;;;;;;;;;;;;;5034864;28;19932;-66
2023/06/26 03:52:02;;;;;;;;;;;;;;;;;;5030919;28;19980;-66
2023/06/26 03:54:29;;;;;;;;;;;;;;;;;;5029393;28;20023;-66
2023/06/26 03:56:56;;;;;;;;;;;;;;;;;;5032385;28;19985;-65
2023/06/26 03:59:23;;;;;;;;;;;;;;;;;;5031129;28;19932;-66
2023/06/26 04:01:50;;;;;;;;;;;;;;;;;;5034308;28;19925;-66
2023/06/26 04:04:17;;;;;;;;;;;;;;;;;;5025722;28;19925;-66
2023/06/26 04:06:44;;;;;;;;;;;;;;;;;;5032214;28;20020;-66
2023/06/26 04:09:11;;;;;;;;;;;;;;;;;;5032543;28;20249;-66
2023/06/26 04:11:38;;;;;;;;;;;;;;;;;;5031715;28;20032;-67
2023/06/26 04:14:05;;;;;;;;;;;;;;;;;;5031506;28;19963;-67
2023/06/26 04:16:32;;;;;;;;;;;;;;;;;;5032168;28;19925;-66
2023/06/26 04:18:59;;;;;;;;;;;;;;;;;;5030737;28;19925;-66
2023/06/26 04:21:26;;;;;;;;;;;;;;;;;;5030099;28;20023;-66
2023/06/26 04:23:53;;;;;;;;;;;;;;;;;;5032498;28;20012;-66
2023/06/26 04:26:19;;;;;;;;;;;;;;;;;;5031638;28;20418;-66
2023/06/26 04:28:46;;;;;;;;;;;;;;;;;;5032297;28;20372;-67
2023/06/26 04:31:13;;;;;;;;;;;;;;;;;;5032736;28;20020;-68
2023/06/26 04:33:40;;;;;;;;;;;;;;;;;;5031184;28;20023;-68
2023/06/26 04:36:07;;;;;;;;;;;;;;;;;;5030833;28;20012;-67
2023/06/26 04:38:34;;;;;;;;;;;;;;;;;;5032228;28;19928;-67
2023/06/26 04:41:01;;;;;;;;;;;;;;;;;;5039978;28;19932;-67
2023/06/26 04:43:28;;;;;;;;;;;;;;;;;;5034448;28;20023;-67
2023/06/26 04:45:55;;;;;;;;;;;;;;;;;;5032164;28;19925;-67
2023/06/26 04:48:22;;;;;;;;;;;;;;;;;;5031189;28;19960;-67
2023/06/26 04:50:53;;;;;;;;;;;;;;;;;;5028846;28;19929;-67
2023/06/26 04:53:20;;;;;;;;;;;;;;;;;;5030198;28;20007;-67
2023/06/26 04:55:47;;;;;;;;;;;;;;;;;;5032292;28;20020;-67
2023/06/26 04:58:14;;;;;;;;;;;;;;;;;;5030823;28;20028;-67
2023/06/26 05:00:43;;;;;;;;;;;;;;;;;;5032271;28;20017;-67
2023/06/26 05:03:10;;;;;;;;;;;;;;;;;;5031890;28;19925;-67
2023/06/26 05:05:37;;;;;;;;;;;;;;;;;;5030941;28;19967;-68
2023/06/26 05:08:04;;;;;;;;;;;;;;;;;;5031311;28;19987;-67
2023/06/26 05:10:31;;;;;;;;;;;;;;;;;;5030924;28;20019;-67
2023/06/26 05:12:58;;;;;;;;;;;;;;;;;;5031392;28;19964;-67
2023/06/26 05:15:25;;;;;;;;;;;;;;;;;;5043553;28;19968;-67
2023/06/26 05:17:52;;;;;;;;;;;;;;;;;;5052003;28;19925;-67
2023/06/26 05:20:19;;;;;;;;;;;;;;;;;;5032224;28;19980;-67
2023/06/26 05:22:46;;;;;;;;;;;;;;;;;;5030478;28;20019;-67
2023/06/26 05:25:13;;;;;;;;;;;;;;;;;;5031596;28;20363;-67
2023/06/26 05:27:40;;;;;;;;;;;;;;;;;;5027338;28;20351;-68
2023/06/26 05:30:07;;;;;;;;;;;;;;;;;;5029722;28;20016;-67
2023/06/26 05:32:34;;;;;;;;;;;;;;;;;;5031072;28;19979;-67
2023/06/26 05:35:01;;;;;;;;;;;;;;;;;;5030145;28;20008;-67
2023/06/26 05:37:28;;;;;;;;;;;;;;;;;;5027340;28;20023;-67
2023/06/26 05:39:55;;;;;;;;;;;;;;;;;;5029442;28;20019;-65
2023/06/26 05:42:22;;;;;;;;;;;;;;;;;;5029603;28;19925;-65
2023/06/26 05:44:49;;;;;;;;;;;;;;;;;;5030808;28;20028;-66
2023/06/26 05:47:16;;;;;;;;;;;;;;;;;;5031098;28;20353;-66
2023/06/26 05:49:43;;;;;;;;;;;;;;;;;;5035601;28;19932;-66
2023/06/26 05:52:10;;;;;;;;;;;;;;;;;;5030565;28;20020;-67
2023/06/26 05:54:37;;;;;;;;;;;;;;;;;;5029497;28;21650;-66
2023/06/26 05:57:04;;;;;;;;;;;;;;;;;;5018888;28;20299;-66
2023/06/26 05:59:31;;;;;;;;;;;;;;;;;;5019225;28;19968;-66
2023/06/26 06:01:58;;;;;;;;;;;;;;;;;;5029049;28;20007;-66
2023/06/26 06:04:25;;;;;;;;;;;;;;;;;;5032871;28;20012;-66
2023/06/26 06:06:52;;;;;;;;;;;;;;;;;;5034545;28;19979;-67
2023/06/26 06:09:19;;;;;;;;;;;;;;;;;;5037285;28;19975;-67
2023/06/26 06:11:46;;;;;;;;;;;;;;;;;;5029495;28;20511;-66
2023/06/26 06:14:13;;;;;;;;;;;;;;;;;;5028307;28;19926;-66
2023/06/26 06:16:40;;;;;;;;;;;;;;;;;;5034315;28;20007;-67
2023/06/26 06:19:10;;;;;;;;;;;;;;;;;;5032131;28;20008;-68
2023/06/26 06:21:37;;;;;;;;;;;;;;;;;;5028285;28;19932;-66
2023/06/26 06:24:04;;;;;;;;;;;;;;;;;;5043540;28;19929;-67
2023/06/26 06:26:31;;;;;;;;;;;;;;;;;;5030201;28;19925;-66
2023/06/26 06:28:58;;;;;;;;;;;;;;;;;;5030282;28;19985;-66
2023/06/26 06:31:28;;;;;;;;;;;;;;;;;;5033072;28;19961;-66
2023/06/26 06:33:55;;;;;;;;;;;;;;;;;;5033084;28;19980;-67
2023/06/26 06:36:22;;;;;;;;;;;;;;;;;;5019531;28;20016;-67
2023/06/26 06:38:49;;;;;;;;;;;;;;;;;;5032033;28;19984;-67
2023/06/26 06:41:16;;;;;;;;;;;;;;;;;;5033305;28;20335;-69
2023/06/26 06:43:43;;;;;;;;;;;;;;;;;;5033409;28;19925;-67
2023/06/26 06:46:10;;;;;;;;;;;;;;;;;;5034005;28;19925;-66
2023/06/26 06:48:37;;;;;;;;;;;;;;;;;;5032906;28;19976;-67
2023/06/26 06:51:04;;;;;;;;;;;;;;;;;;5028753;28;19983;-67
2023/06/26 06:53:31;;;;;;;;;;;;;;;;;;5020256;28;19925;-68
2023/06/26 06:55:58;;;;;;;;;;;;;;;;;;5026440;28;19932;-68
2023/06/26 06:58:25;;;;;;;;;;;;;;;;;;5039252;28;19977;-68
2023/06/26 07:00:52;;;;;;;;;;;;;;;;;;5033116;28;19964;-68
2023/06/26 07:03:21;;;;;;;;;;;;;;;;;;5029115;28;19929;-67
2023/06/26 07:05:48;;;;;;;;;;;;;;;;;;5033274;28;20388;-67
2023/06/26 07:08:15;;;;;;;;;;;;;;;;;;5032968;28;20331;-67
2023/06/26 07:10:43;;;;;;;;;;;;;;;;;;5032850;28;20447;-66
2023/06/26 07:13:10;;;;;;;;;;;;;;;;;;5032477;28;19925;-67
2023/06/26 07:15:37;;;;;;;;;;;;;;;;;;5023738;28;20028;-67
2023/06/26 07:18:04;;;;;;;;;;;;;;;;;;5027555;28;19925;-67
2023/06/26 07:20:31;;;;;;;;;;;;;;;;;;5031775;28;20366;-67
2023/06/26 07:22:58;;;;;;;;;;;;;;;;;;5026326;28;19929;-67
2023/06/26 07:25:25;;;;;;;;;;;;;;;;;;5023834;28;19929;-67
2023/06/26 07:27:51;;;;;;;;;;;;;;;;;;5031482;28;20343;-67
2023/06/26 07:30:18;;;;;;;;;;;;;;;;;;5040526;28;19964;-67
2023/06/26 07:32:46;;;;;;;;;;;;;;;;;;5027746;28;20016;-67
2023/06/26 07:35:13;;;;;;;;;;;;;;;;;;5031707;28;20341;-67
2023/06/26 07:37:40;;;;;;;;;;;;;;;;;;5027625;28;20039;-67
2023/06/26 07:40:07;;;;;;;;;;;;;;;;;;5026278;28;21920;-67
2023/06/26 07:42:34;;;;;;;;;;;;;;;;;;5030978;28;19933;-67
2023/06/26 07:45:01;;;;;;;;;;;;;;;;;;5026967;28;20007;-67
2023/06/26 07:47:29;;;;;;;;;;;;;;;;;;5029660;28;20269;-68
2023/06/26 07:49:56;;;;;;;;;;;;;;;;;;5030667;28;19932;-67
2023/06/26 07:52:23;;;;;;;;;;;;;;;;;;5035177;28;19999;-67
2023/06/26 07:54:50;;;;;;;;;;;;;;;;;;5030142;28;20023;-68
2023/06/26 07:57:17;;;;;;;;;;;;;;;;;;5024287;28;19932;-67
2023/06/26 07:59:44;;;;;;;;;;;;;;;;;;5036607;28;19924;-67
2023/06/26 08:02:11;;;;;;;;;;;;;;;;;;5027274;28;19988;-67
2023/06/26 08:04:38;;;;;;;;;;;;;;;;;;5018167;28;20032;-67
2023/06/26 08:07:05;;;;;;;;;;;;;;;;;;5023739;28;19968;-67
2023/06/26 08:09:32;;;;;;;;;;;;;;;;;;5022661;28;19926;-67
2023/06/26 08:11:59;;;;;;;;;;;;;;;;;;5029731;28;20343;-67
2023/06/26 08:14:26;;;;;;;;;;;;;;;;;;5027352;28;19964;-68
2023/06/26 08:16:53;;;;;;;;;;;;;;;;;;5023957;28;19932;-68
2023/06/26 08:19:20;;;;;;;;;;;;;;;;;;5017205;28;20011;-68
2023/06/26 08:21:47;;;;;;;;;;;;;;;;;;5024364;28;19925;-68
2023/06/26 08:24:16;;;;;;;;;;;;;;;;;;5020707;28;20016;-66
2023/06/26 08:26:43;;;;;;;;;;;;;;;;;;5021128;28;20015;-67
2023/06/26 08:29:10;;;;;;;;;;;;;;;;;;5020971;28;19945;-68
2023/06/26 08:31:37;;;;;;;;;;;;;;;;;;5025855;28;20016;-67
2023/06/26 08:34:05;;;;;;;;;;;;;;;;;;5028889;28;19925;-67
2023/06/26 08:36:32;;;;;;;;;;;;;;;;;;5020780;28;20389;-68
2023/06/26 08:38:59;;;;;;;;;;;;;;;;;;5021039;28;19929;-67
2023/06/26 08:41:26;;;;;;;;;;;;;;;;;;5022583;28;20070;-65
2023/06/26 08:43:53;;;;;;;;;;;;;;;;;;5026142;28;19961;-66
2023/06/26 08:46:20;;;;;;;;;;;;;;;;;;5023840;28;19926;-66
2023/06/26 08:48:47;;;;;;;;;;;;;;;;;;5027140;28;19929;-67
2023/06/26 08:51:14;;;;;;;;;;;;;;;;;;5030714;28;20360;-67
2023/06/26 08:53:41;;;;;;;;;;;;;;;;;;5026872;28;19979;-67
2023/06/26 08:56:08;;;;;;;;;;;;;;;;;;5028004;28;20303;-67
2023/06/26 08:58:36;;;;;;;;;;;;;;;;;;5025494;28;19933;-67
2023/06/26 09:01:03;;;;;;;;;;;;;;;;;;5029856;28;19926;-67
2023/06/26 09:03:30;;;;;;;;;;;;;;;;;;5025166;28;20400;-67
2023/06/26 09:05:57;;;;;;;;;;;;;;;;;;5022182;28;19983;-67
2023/06/26 09:08:24;;;;;;;;;;;;;;;;;;5027359;28;20123;-67
2023/06/26 09:10:52;;;;;;;;;;;;;;;;;;5029137;28;20392;-67
2023/06/26 09:13:19;;;;;;;;;;;;;;;;;;5022191;28;19979;-67
2023/06/26 09:15:46;;;;;;;;;;;;;;;;;;5014811;28;20025;-67
2023/06/26 09:18:13;;;;;;;;;;;;;;;;;;5022462;28;20036;-67
2023/06/26 09:20:40;;;;;;;;;;;;;;;;;;5027523;28;20028;-66
2023/06/26 09:23:07;;;;;;;;;;;;;;;;;;5024943;28;20023;-67
2023/06/26 09:25:34;;;;;;;;;;;;;;;;;;5021358;28;19925;-67
2023/06/26 09:28:01;;;;;;;;;;;;;;;;;;5025059;28;20008;-67
2023/06/26 09:30:28;;;;;;;;;;;;;;;;;;5028091;28;20036;-67
2023/06/26 09:32:55;;;;;;;;;;;;;;;;;;5024358;28;19929;-67
2023/06/26 09:35:23;;;;;;;;;;;;;;;;;;5024670;28;20317;-66
2023/06/26 09:37:49;;;;;;;;;;;;;;;;;;5033867;28;19925;-67
2023/06/26 09:40:16;;;;;;;;;;;;;;;;;;5032956;28;20337;-66
2023/06/26 09:42:43;;;;;;;;;;;;;;;;;;5029457;28;20003;-67
2023/06/26 09:45:11;;;;;;;;;;;;;;;;;;5029967;28;20513;-67
2023/06/26 09:47:38;;;;;;;;;;;;;;;;;;5031919;28;19993;-67
2023/06/26 09:50:05;;;;;;;;;;;;;;;;;;5023326;28;20019;-68
2023/06/26 09:52:34;;;;;;;;;;;;;;;;;;5022636;28;19933;-67
2023/06/26 09:55:01;;;;;;;;;;;;;;;;;;5021402;28;19926;-66
2023/06/26 09:57:28;;;;;;;;;;;;;;;;;;5025093;28;20016;-67
2023/06/26 09:59:55;;;;;;;;;;;;;;;;;;5020197;28;20282;-67
2023/06/26 10:02:22;;;;;;;;;;;;;;;;;;5025349;28;19956;-66
2023/06/26 10:04:49;;;;;;;;;;;;;;;;;;5017275;28;20020;-66
2023/06/26 10:07:17;;;;;;;;;;;;;;;;;;5022411;28;20040;-67
2023/06/26 10:09:44;;;;;;;;;;;;;;;;;;5023893;28;19929;-66
2023/06/26 10:12:11;;;;;;;;;;;;;;;;;;5033905;28;19967;-66
2023/06/26 10:14:39;;;;;;;;;;;;;;;;;;5031584;28;19979;-66
2023/06/26 10:17:06;;;;;;;;;;;;;;;;;;5027979;28;19925;-66
2023/06/26 10:19:33;;;;;;;;;;;;;;;;;;5030085;28;20023;-67
2023/06/26 10:22:00;;;;;;;;;;;;;;;;;;5033062;28;20011;-67
2023/06/26 10:24:27;;;;;;;;;;;;;;;;;;5037551;28;20016;-68
2023/06/26 10:26:54;;;;;;;;;;;;;;;;;;5033616;28;19937;-67
2023/06/26 10:29:22;;;;;;;;;;;;;;;;;;5030283;28;20067;-65
2023/06/26 10:31:49;;;;;;;;;;;;;;;;;;5036138;28;19925;-67
2023/06/26 10:34:16;;;;;;;;;;;;;;;;;;5019989;28;20024;-67
2023/06/26 10:36:43;;;;;;;;;;;;;;;;;;5034117;28;20557;-68
2023/06/26 10:39:10;;;;;;;;;;;;;;;;;;5029002;28;20371;-64
2023/06/26 10:41:37;;;;;;;;;;;;;;;;;;5030645;28;20360;-66
2023/06/26 10:44:04;;;;;;;;;;;;;;;;;;5020515;28;19937;-66
2023/06/26 10:46:31;;;;;;;;;;;;;;;;;;5027381;28;20340;-67
2023/06/26 10:48:58;;;;;;;;;;;;;;;;;;5030324;28;20273;-67
2023/06/26 10:51:25;;;;;;;;;;;;;;;;;;5031036;28;20003;-67
2023/06/26 10:53:52;;;;;;;;;;;;;;;;;;5023443;28;19956;-67
2023/06/26 10:56:19;;;;;;;;;;;;;;;;;;5037556;28;19969;-67
2023/06/26 10:58:47;;;;;;;;;;;;;;;;;;5022809;28;19933;-68
2023/06/26 11:01:16;;;;;;;;;;;;;;;;;;5017692;28;19925;-67
2023/06/26 11:03:43;;;;;;;;;;;;;;;;;;5022761;28;19936;-67
2023/06/26 11:06:10;;;;;;;;;;;;;;;;;;5025700;28;19977;-68
2023/06/26 11:08:37;;;;;;;;;;;;;;;;;;5029869;28;19925;-68
2023/06/26 11:11:04;;;;;;;;;;;;;;;;;;5023465;28;20632;-68
2023/06/26 11:13:31;;;;;;;;;;;;;;;;;;5022241;28;19929;-68
2023/06/26 11:15:58;;;;;;;;;;;;;;;;;;5025167;28;20020;-67
2023/06/26 11:18:25;;;;;;;;;;;;;;;;;;5031642;28;19926;-68
2023/06/26 11:20:52;;;;;;;;;;;;;;;;;;5025603;28;20005;-69
2023/06/26 11:23:19;;;;;;;;;;;;;;;;;;5027048;28;19925;-68
2023/06/26 11:25:46;;;;;;;;;;;;;;;;;;5018628;28;20024;-69
2023/06/26 11:28:13;;;;;;;;;;;;;;;;;;5022587;28;19966;-69
2023/06/26 11:30:41;;;;;;;;;;;;;;;;;;5031252;28;19973;-68
2023/06/26 11:33:08;;;;;;;;;;;;;;;;;;5023993;28;20354;-68
2023/06/26 11:35:35;;;;;;;;;;;;;;;;;;5022794;28;20072;-68
2023/06/26 11:38:04;;;;;;;;;;;;;;;;;;5018908;28;19971;-69
2023/06/26 11:40:31;;;;;;;;;;;;;;;;;;5032052;28;20020;-68
2023/06/26 11:42:59;;;;;;;;;;;;;;;;;;5031635;28;19925;-69
2023/06/26 11:45:26;;;;;;;;;;;;;;;;;;5032138;28;19928;-68
2023/06/26 11:47:53;;;;;;;;;;;;;;;;;;5034230;28;19929;-68
2023/06/26 11:50:20;;;;;;;;;;;;;;;;;;5028009;28;19948;-69
2023/06/26 11:52:47;;;;;;;;;;;;;;;;;;5027231;28;20071;-69
2023/06/26 11:55:16;;;;;;;;;;;;;;;;;;5031251;28;19926;-69
2023/06/26 11:57:44;;;;;;;;;;;;;;;;;;5027796;28;20002;-68
2023/06/26 12:00:11;;;;;;;;;;;;;;;;;;5031762;28;19932;-69
2023/06/26 12:02:38;;;;;;;;;;;;;;;;;;5036583;28;19925;-67
2023/06/26 12:05:05;;;;;;;;;;;;;;;;;;5024599;28;20002;-67
2023/06/26 12:07:32;;;;;;;;;;;;;;;;;;5029688;28;19932;-68
2023/06/26 12:09:59;;;;;;;;;;;;;;;;;;5032066;28;19979;-68
2023/06/26 12:12:26;;;;;;;;;;;;;;;;;;5030041;28;20360;-68
2023/06/26 12:14:53;;;;;;;;;;;;;;;;;;5031026;28;19925;-69
2023/06/26 12:17:20;;;;;;;;;;;;;;;;;;5029614;28;19929;-69
2023/06/26 12:19:48;;;;;;;;;;;;;;;;;;5034459;28;19971;-69
2023/06/26 12:22:15;;;;;;;;;;;;;;;;;;5025183;28;19971;-69
2023/06/26 12:24:42;;;;;;;;;;;;;;;;;;5021948;28;19972;-68
2023/06/26 12:27:09;;;;;;;;;;;;;;;;;;5028104;28;19925;-69
2023/06/26 12:29:36;;;;;;;;;;;;;;;;;;5029625;28;20007;-68
2023/06/26 12:32:03;;;;;;;;;;;;;;;;;;5031031;28;19926;-69
2023/06/26 12:34:30;;;;;;;;;;;;;;;;;;5023759;28;20453;-68
2023/06/26 12:36:57;;;;;;;;;;;;;;;;;;5017038;28;20389;-69
2023/06/26 12:39:27;;;;;;;;;;;;;;;;;;5028307;28;20348;-69
2023/06/26 12:41:54;;;;;;;;;;;;;;;;;;5024813;28;19965;-69
2023/06/26 12:44:21;;;;;;;;;;;;;;;;;;5027494;28;20024;-69
2023/06/26 12:46:49;;;;;;;;;;;;;;;;;;5027958;28;19933;-69
2023/06/26 12:49:16;;;;;;;;;;;;;;;;;;5021271;28;19973;-69
2023/06/26 12:51:43;;;;;;;;;;;;;;;;;;5021974;28;19964;-68
2023/06/26 12:54:10;;;;;;;;;;;;;;;;;;5024815;28;19925;-67
2023/06/26 12:56:38;;;;;;;;;;;;;;;;;;5024595;28;19932;-70
2023/06/26 12:59:05;;;;;;;;;;;;;;;;;;5023900;28;19996;-69
2023/06/26 13:01:32;;;;;;;;;;;;;;;;;;5029054;28;19979;-68
2023/06/26 13:03:59;;;;;;;;;;;;;;;;;;5018584;28;19932;-68
2023/06/26 13:06:26;;;;;;;;;;;;;;;;;;5021167;28;19929;-70
2023/06/26 13:08:53;;;;;;;;;;;;;;;;;;5020965;28;19925;-66
2023/06/26 13:11:21;;;;;;;;;;;;;;;;;;5024111;28;20402;-67
2023/06/26 13:13:48;;;;;;;;;;;;;;;;;;5024684;28;19936;-67
2023/06/26 13:16:16;;;;;;;;;;;;;;;;;;5020129;28;19932;-67
2023/06/26 13:18:42;;;;;;;;;;;;;;;;;;5029190;28;20028;-67
2023/06/26 13:21:09;;;;;;;;;;;;;;;;;;5023127;28;20028;-66
2023/06/26 13:23:36;;;;;;;;;;;;;;;;;;5030626;28;19925;-66
2023/06/26 13:26:03;;;;;;;;;;;;;;;;;;5027288;28;20024;-66
2023/06/26 13:28:30;;;;;;;;;;;;;;;;;;5021247;28;20012;-68
2023/06/26 13:30:57;;;;;;;;;;;;;;;;;;5024714;28;20036;-69
2023/06/26 13:33:25;;;;;;;;;;;;;;;;;;5019810;28;19964;-68
2023/06/26 13:35:52;;;;;;;;;;;;;;;;;;5024043;28;19933;-68
2023/06/26 13:38:19;;;;;;;;;;;;;;;;;;5027474;28;19930;-70
2023/06/26 13:40:46;;;;;;;;;;;;;;;;;;5024153;28;19933;-70
2023/06/26 13:43:13;;;;;;;;;;;;;;;;;;5028053;28;20493;-70
2023/06/26 13:45:40;;;;;;;;;;;;;;;;;;5028335;28;19979;-70
2023/06/26 13:48:07;;;;;;;;;;;;;;;;;;5022961;28;20016;-70
2023/06/26 13:50:34;;;;;;;;;;;;;;;;;;5019341;28;19925;-70
2023/06/26 13:53:02;;;;;;;;;;;;;;;;;;5032840;28;20020;-70
2023/06/26 13:55:30;;;;;;;;;;;;;;;;;;5027370;28;19936;-69
2023/06/26 13:57:58;;;;;;;;;;;;;;;;;;5040361;28;19938;-70
2023/06/26 14:00:25;;;;;;;;;;;;;;;;;;5030354;28;20450;-70
2023/06/26 14:02:52;;;;;;;;;;;;;;;;;;5031813;28;19972;-68
2023/06/26 14:05:19;;;;;;;;;;;;;;;;;;5025264;28;19925;-68
2023/06/26 14:07:47;;;;;;;;;;;;;;;;;;5026735;28;20367;-68
2023/06/26 14:10:14;;;;;;;;;;;;;;;;;;5027855;28;19930;-68
2023/06/26 14:12:41;;;;;;;;;;;;;;;;;;5021759;28;20012;-68
2023/06/26 14:15:08;;;;;;;;;;;;;;;;;;5028512;28;20472;-69
2023/06/26 14:17:35;;;;;;;;;;;;;;;;;;5024497;28;20467;-68
2023/06/26 14:20:05;;;;;;;;;;;;;;;;;;5022398;28;19987;-68
2023/06/26 14:22:32;;;;;;;;;;;;;;;;;;5022669;28;19929;-68
2023/06/26 14:24:59;;;;;;;;;;;;;;;;;;5026645;28;19929;-68
2023/06/26 14:27:26;;;;;;;;;;;;;;;;;;5024511;28;19932;-68
2023/06/26 14:29:53;;;;;;;;;;;;;;;;;;5023056;28;20035;-68
2023/06/26 14:32:20;;;;;;;;;;;;;;;;;;5021884;28;19936;-68
2023/06/26 14:34:47;;;;;;;;;;;;;;;;;;5023790;28;20059;-68
2023/06/26 14:37:14;;;;;;;;;;;;;;;;;;5023996;28;20024;-68
2023/06/26 14:39:41;;;;;;;;;;;;;;;;;;5024415;28;20016;-69
2023/06/26 14:42:08;;;;;;;;;;;;;;;;;;5032796;28;19925;-68
2023/06/26 14:44:35;;;;;;;;;;;;;;;;;;5025720;28;20023;-68
2023/06/26 14:47:02;;;;;;;;;;;;;;;;;;5023037;28;19925;-68
2023/06/26 14:49:29;;;;;;;;;;;;;;;;;;5023989;28;19968;-68
2023/06/26 14:51:56;;;;;;;;;;;;;;;;;;5023221;28;20343;-69
2023/06/26 14:54:23;;;;;;;;;;;;;;;;;;5033289;28;20003;-68
2023/06/26 14:56:50;;;;;;;;;;;;;;;;;;5031420;28;20331;-70
2023/06/26 14:59:18;;;;;;;;;;;;;;;;;;5031625;28;19979;-69
2023/06/26 15:01:44;;;;;;;;;;;;;;;;;;5032138;28;19925;-69
2023/06/26 15:04:12;;;;;;;;;;;;;;;;;;5031023;28;19929;-70
2023/06/26 15:06:39;;;;;;;;;;;;;;;;;;5033332;28;19924;-70
2023/06/26 15:09:08;;;;;;;;;;;;;;;;;;5021541;28;20465;-69
2023/06/26 15:11:35;;;;;;;;;;;;;;;;;;5030384;28;19932;-69
2023/06/26 15:14:02;;;;;;;;;;;;;;;;;;5021256;28;19932;-68
2023/06/26 15:16:29;;;;;;;;;;;;;;;;;;5023431;28;19933;-69
2023/06/26 15:18:56;;;;;;;;;;;;;;;;;;5026005;28;20008;-69
2023/06/26 15:21:23;;;;;;;;;;;;;;;;;;5022649;28;20000;-69
2023/06/26 15:23:50;;;;;;;;;;;;;;;;;;5027138;28;19932;-70
2023/06/26 15:26:17;;;;;;;;;;;;;;;;;;5027437;28;19961;-69
2023/06/26 15:28:44;;;;;;;;;;;;;;;;;;5029636;28;20008;-71
2023/06/26 15:31:11;;;;;;;;;;;;;;;;;;5015870;28;20025;-68
2023/06/26 15:33:38;;;;;;;;;;;;;;;;;;5023368;28;20112;-68
2023/06/26 15:36:05;;;;;;;;;;;;;;;;;;5020056;28;19925;-69
2023/06/26 15:38:32;;;;;;;;;;;;;;;;;;5020352;28;19925;-70
2023/06/26 15:40:59;;;;;;;;;;;;;;;;;;5023688;28;19999;-69
2023/06/26 15:43:28;;;;;;;;;;;;;;;;;;5034411;28;20388;-72
2023/06/26 15:45:55;;;;;;;;;;;;;;;;;;5031183;28;19991;-69
2023/06/26 15:48:25;;;;;;;;;;;;;;;;;;5035345;28;19959;-72
2023/06/26 15:50:52;;;;;;;;;;;;;;;;;;5031464;28;20031;-72
2023/06/26 15:53:19;;;;;;;;;;;;;;;;;;5027997;28;20464;-74
2023/06/26 15:55:47;;;;;;;;;;;;;;;;;;5030989;28;19971;-72
2023/06/26 15:58:14;;;;;;;;;;;;;;;;;;5022423;28;20303;-73
2023/06/26 16:00:41;;;;;;;;;;;;;;;;;;5032196;28;19980;-72
2023/06/26 16:03:08;;;;;;;;;;;;;;;;;;5032144;28;19969;-74
2023/06/26 16:05:35;;;;;;;;;;;;;;;;;;5031906;28;19935;-72
2023/06/26 16:08:02;;;;;;;;;;;;;;;;;;5032245;28;19979;-72
2023/06/26 16:10:29;;;;;;;;;;;;;;;;;;5028057;28;19964;-72
2023/06/26 16:12:56;;;;;;;;;;;;;;;;;;5024077;28;19968;-71
2023/06/26 16:15:23;;;;;;;;;;;;;;;;;;5030477;28;20350;-71
2023/06/26 16:17:50;;;;;;;;;;;;;;;;;;5031151;28;20084;-71
2023/06/26 16:20:17;;;;;;;;;;;;;;;;;;5031343;28;19925;-71
2023/06/26 16:22:44;;;;;;;;;;;;;;;;;;5031530;28;20028;-71
2023/06/26 16:25:11;;;;;;;;;;;;;;;;;;5030452;28;20024;-74
2023/06/26 16:27:38;;;;;;;;;;;;;;;;;;5029116;28;20447;-74
2023/06/26 16:30:05;;;;;;;;;;;;;;;;;;5032623;28;20008;-73
2023/06/26 16:32:32;;;;;;;;;;;;;;;;;;5038140;28;20008;-73
2023/06/26 16:34:59;;;;;;;;;;;;;;;;;;5039696;28;20024;-73
2023/06/26 16:37:26;;;;;;;;;;;;;;;;;;5052296;28;19975;-73
2023/06/26 16:39:53;;;;;;;;;;;;;;;;;;5034519;28;20388;-73
2023/06/26 16:42:20;;;;;;;;;;;;;;;;;;5031910;28;20341;-74
2023/06/26 16:44:47;;;;;;;;;;;;;;;;;;5028454;28;20240;-75